Home > Products > Valid Products > TAF

000
FTUS42 KKEY 021100
TAFEYW
TAF
KEYW 021124Z 0212/0312 17005KT P6SM FEW020
     FM021900 VRB04KT P6SM SCT025=



000
FTUS42 KKEY 021100
TAFEYW
TAF
KEYW 021124Z 0212/0312 17005KT P6SM FEW020
     FM021900 VRB04KT P6SM SCT025=



000
FTUS42 KKEY 020800 AAA
TAFEYW
TAF AMD
KEYW 020835Z 0209/0306 VRB05KT P6SM FEW020=



000
FTUS42 KKEY 020800 AAA
TAFEYW
TAF AMD
KEYW 020835Z 0209/0306 VRB05KT P6SM FEW020=



000
FTUS42 KKEY 020500
TAFEYW
TAF
KEYW 020520Z 0206/0306 VRB06KT P6SM FEW020=



000
FTUS42 KKEY 020000 RRA
TAFEYW
TAF
KEYW 020020Z 0200/0224 VRB06KT P6SM FEW020=



000
FTUS42 KKEY 020000 RRA
TAFEYW
TAF
KEYW 020020Z 0200/0224 VRB06KT P6SM FEW020=



000
FTUS42 KKEY 011700
TAFEYW
TAF
KEYW 011720Z 0118/0218 24008KT P6SM SCT020
     FM012200 VRB06KT P6SM SCT020=



000
FTUS42 KKEY 011700
TAFEYW
TAF
KEYW 011720Z 0118/0218 24008KT P6SM SCT020
     FM012200 VRB06KT P6SM SCT020=



000
FTUS42 KKEY 011000 AAA
TAFEYW
TAF AMD
KEYW 011045Z 0111/0206 20006KT P6SM FEW025=



000
FTUS42 KKEY 011000 AAA
TAFEYW
TAF AMD
KEYW 011045Z 0111/0206 20006KT P6SM FEW025=



000
FTUS42 KKEY 010500
TAFEYW
TAF
KEYW 010521Z 0106/0206 VRB04KT P6SM FEW025=



000
FTUS42 KKEY 010500
TAFEYW
TAF
KEYW 010521Z 0106/0206 VRB04KT P6SM FEW025=



000
FTUS42 KKEY 302300 RRA
TAFEYW
TAF
KEYW 302348Z 0100/0124 VRB04KT P6SM FEW025=



000
FTUS42 KKEY 302300 RRA
TAFEYW
TAF
KEYW 302348Z 0100/0124 VRB04KT P6SM FEW025=



000
FTUS42 KKEY 301700
TAFEYW
TAF
KEYW 301737Z 3018/0118 24009KT P6SM FEW025
     FM010000 VRB04KT P6SM FEW025=



000
FTUS42 KKEY 301700
TAFEYW
TAF
KEYW 301737Z 3018/0118 24009KT P6SM FEW025
     FM010000 VRB04KT P6SM FEW025=



000
FTUS42 KKEY 301400 AAA
TAFEYW
TAF AMD
KEYW 301450Z 3015/0112 22007KT P6SM FEW022
     FM302100 25006KT P6SM SCT023 SCT050
     FM010000 VRB04KT P6SM FEW025=



000
FTUS42 KKEY 301400 AAA
TAFEYW
TAF AMD
KEYW 301450Z 3015/0112 22007KT P6SM FEW022
     FM302100 25006KT P6SM SCT023 SCT050
     FM010000 VRB04KT P6SM FEW025=



000
FTUS42 KKEY 301100
TAFEYW
TAF
KEYW 301133Z 3012/0112 23006KT P6SM FEW020
     FM302100 25005KT P6SM SCT023 SCT050
     FM010000 VRB04KT P6SM FEW025=



000
FTUS42 KKEY 301100
TAFEYW
TAF
KEYW 301133Z 3012/0112 23006KT P6SM FEW020
     FM302100 25005KT P6SM SCT023 SCT050
     FM010000 VRB04KT P6SM FEW025=



000
FTUS42 KKEY 300800 AAA
TAFEYW
TAF AMD
KEYW 300847Z 3009/0106 VRB03KT P6SM FEW023
     FM301300 23006KT P6SM SCT023
     FM302100 27005KT P6SM VCSH SCT023 SCT050=



000
FTUS42 KKEY 300800 AAA
TAFEYW
TAF AMD
KEYW 300847Z 3009/0106 VRB03KT P6SM FEW023
     FM301300 23006KT P6SM SCT023
     FM302100 27005KT P6SM VCSH SCT023 SCT050=



000
FTUS42 KKEY 300500
TAFEYW
TAF
KEYW 300522Z 3006/0106 VRB03KT P6SM FEW023
     FM301300 23006KT P6SM SCT023
     FM302100 27005KT P6SM VCSH SCT023 SCT050=



000
FTUS42 KKEY 300500
TAFEYW
TAF
KEYW 300522Z 3006/0106 VRB03KT P6SM FEW023
     FM301300 23006KT P6SM SCT023
     FM302100 27005KT P6SM VCSH SCT023 SCT050=



000
FTUS42 KKEY 292300
TAFEYW
TAF
KEYW 292327Z 3000/3024 26006KT P6SM SCT023
     FM301200 22005KT P6SM VCSH SCT023 SCT050=



000
FTUS42 KKEY 292300
TAFEYW
TAF
KEYW 292327Z 3000/3024 26006KT P6SM SCT023
     FM301200 22005KT P6SM VCSH SCT023 SCT050=



000
FTUS42 KKEY 291700
TAFEYW
TAF
KEYW 291722Z 2918/3018 17006KT P6SM SCT023
     FM301200 22005KT P6SM VCSH SCT023 SCT050=



000
FTUS42 KKEY 291700
TAFEYW
TAF
KEYW 291722Z 2918/3018 17006KT P6SM SCT023
     FM301200 22005KT P6SM VCSH SCT023 SCT050=



    US Dept of Commerce
    National Oceanic and Atmospheric Administration
    National Weather Service
    1325 East West Highway
    Silver Spring, MD 20910
    Page Author: NWS Internet Services Team
Disclaimer
Information Quality
Credits
Glossary
Privacy Policy
Freedom of Information Act (FOIA)
About Us
Career Opportunities